sensor_id;sensor_type;location;lat;lon;timestamp;temperature;humidity
50560;DHT22;36510;52.610;13.468;2022-09-30T00:01:01;9.80;33.10
50560;DHT22;36510;52.610;13.468;2022-09-30T00:06:03;9.40;33.20
50560;DHT22;36510;52.610;13.468;2022-09-30T00:11:08;9.30;34.80
50560;DHT22;36510;52.610;13.468;2022-09-30T00:16:00;9.40;35.10
50560;DHT22;36510;52.610;13.468;2022-09-30T00:20:51;9.50;34.10
50560;DHT22;36510;52.610;13.468;2022-09-30T00:25:42;9.50;34.40
50560;DHT22;36510;52.610;13.468;2022-09-30T00:30:33;9.30;34.60
50560;DHT22;36510;52.610;13.468;2022-09-30T00:35:23;9.20;35.50
50560;DHT22;36510;52.610;13.468;2022-09-30T00:40:14;9.10;35.30
50560;DHT22;36510;52.610;13.468;2022-09-30T00:45:07;9.00;35.60
50560;DHT22;36510;52.610;13.468;2022-09-30T00:50:02;9.00;35.40
50560;DHT22;36510;52.610;13.468;2022-09-30T00:54:55;9.00;35.40
50560;DHT22;36510;52.610;13.468;2022-09-30T00:59:49;8.90;35.90
50560;DHT22;36510;52.610;13.468;2022-09-30T01:04:42;8.90;36.30
50560;DHT22;36510;52.610;13.468;2022-09-30T01:09:39;9.10;36.00
50560;DHT22;36510;52.610;13.468;2022-09-30T01:14:30;9.10;34.60
50560;DHT22;36510;52.610;13.468;2022-09-30T01:19:45;9.00;35.20
50560;DHT22;36510;52.610;13.468;2022-09-30T01:24:57;9.00;34.80
50560;DHT22;36510;52.610;13.468;2022-09-30T01:30:07;8.90;35.60
50560;DHT22;36510;52.610;13.468;2022-09-30T01:35:24;8.80;35.70
50560;DHT22;36510;52.610;13.468;2022-09-30T01:40:25;8.90;36.30
50560;DHT22;36510;52.610;13.468;2022-09-30T01:46:04;9.10;35.70
50560;DHT22;36510;52.610;13.468;2022-09-30T01:50:55;9.20;35.00
50560;DHT22;36510;52.610;13.468;2022-09-30T01:55:53;9.40;34.10
50560;DHT22;36510;52.610;13.468;2022-09-30T02:00:49;9.40;33.50
50560;DHT22;36510;52.610;13.468;2022-09-30T02:06:03;9.30;33.60
50560;DHT22;36510;52.610;13.468;2022-09-30T02:11:01;9.40;33.70
50560;DHT22;36510;52.610;13.468;2022-09-30T02:15:54;9.40;32.70
50560;DHT22;36510;52.610;13.468;2022-09-30T02:20:53;9.20;33.00
50560;DHT22;36510;52.610;13.468;2022-09-30T02:25:48;9.00;33.30
50560;DHT22;36510;52.610;13.468;2022-09-30T02:30:46;9.00;33.70
50560;DHT22;36510;52.610;13.468;2022-09-30T02:35:42;9.20;33.30
50560;DHT22;36510;52.610;13.468;2022-09-30T02:40:38;9.10;32.20
50560;DHT22;36510;52.610;13.468;2022-09-30T02:45:42;8.90;33.40
50560;DHT22;36510;52.610;13.468;2022-09-30T02:50:42;9.00;34.00
50560;DHT22;36510;52.610;13.468;2022-09-30T02:55:50;8.90;33.40
50560;DHT22;36510;52.610;13.468;2022-09-30T03:00:47;8.80;33.90
50560;DHT22;36510;52.610;13.468;2022-09-30T03:05:39;8.60;34.00
50560;DHT22;36510;52.610;13.468;2022-09-30T03:10:30;8.60;34.40
50560;DHT22;36510;52.610;13.468;2022-09-30T03:15:44;8.40;34.40
50560;DHT22;36510;52.610;13.468;2022-09-30T03:26:01;8.30;35.20
50560;DHT22;36510;52.610;13.468;2022-09-30T03:31:18;8.30;34.90
50560;DHT22;36510;52.610;13.468;2022-09-30T03:41:40;8.50;34.30
50560;DHT22;36510;52.610;13.468;2022-09-30T03:46:37;8.60;33.70
50560;DHT22;36510;52.610;13.468;2022-09-30T03:51:30;8.70;33.40
50560;DHT22;36510;52.610;13.468;2022-09-30T03:56:28;8.90;32.60
50560;DHT22;36510;52.610;13.468;2022-09-30T04:01:21;8.80;31.90
50560;DHT22;36510;52.610;13.468;2022-09-30T04:06:13;8.60;33.40
50560;DHT22;36510;52.610;13.468;2022-09-30T04:11:04;8.60;34.20
50560;DHT22;36510;52.610;13.468;2022-09-30T04:15:54;8.50;34.30
50560;DHT22;36510;52.610;13.468;2022-09-30T04:20:45;8.50;33.90
50560;DHT22;36510;52.610;13.468;2022-09-30T04:25:35;8.30;34.50
50560;DHT22;36510;52.610;13.468;2022-09-30T04:30:26;8.40;35.00
50560;DHT22;36510;52.610;13.468;2022-09-30T04:35:16;8.50;36.30
50560;DHT22;36510;52.610;13.468;2022-09-30T04:40:07;8.40;35.50
50560;DHT22;36510;52.610;13.468;2022-09-30T04:44:59;8.00;36.40
50560;DHT22;36510;52.610;13.468;2022-09-30T04:49:50;8.00;37.80
50560;DHT22;36510;52.610;13.468;2022-09-30T04:54:41;8.00;36.90
50560;DHT22;36510;52.610;13.468;2022-09-30T04:59:31;8.20;37.60
50560;DHT22;36510;52.610;13.468;2022-09-30T05:04:23;8.40;36.60
50560;DHT22;36510;52.610;13.468;2022-09-30T05:09:13;8.60;35.60
50560;DHT22;36510;52.610;13.468;2022-09-30T05:14:07;8.70;34.30
50560;DHT22;36510;52.610;13.468;2022-09-30T05:19:01;8.40;34.00
50560;DHT22;36510;52.610;13.468;2022-09-30T05:23:53;8.30;35.60
50560;DHT22;36510;52.610;13.468;2022-09-30T05:28:43;8.20;35.10
50560;DHT22;36510;52.610;13.468;2022-09-30T05:33:34;8.20;35.50
50560;DHT22;36510;52.610;13.468;2022-09-30T05:38:25;8.20;35.40
50560;DHT22;36510;52.610;13.468;2022-09-30T05:43:15;8.20;35.10
50560;DHT22;36510;52.610;13.468;2022-09-30T05:48:06;8.10;35.40
50560;DHT22;36510;52.610;13.468;2022-09-30T05:52:57;8.10;35.90
50560;DHT22;36510;52.610;13.468;2022-09-30T05:57:49;7.80;37.90
50560;DHT22;36510;52.610;13.468;2022-09-30T06:02:39;7.50;41.70
50560;DHT22;36510;52.610;13.468;2022-09-30T06:07:32;7.60;42.90
50560;DHT22;36510;52.610;13.468;2022-09-30T06:12:23;7.50;47.00
50560;DHT22;36510;52.610;13.468;2022-09-30T06:17:16;7.70;46.70
50560;DHT22;36510;52.610;13.468;2022-09-30T06:22:07;8.00;47.10
50560;DHT22;36510;52.610;13.468;2022-09-30T06:26:58;8.40;47.40
50560;DHT22;36510;52.610;13.468;2022-09-30T06:31:48;8.80;45.00
50560;DHT22;36510;52.610;13.468;2022-09-30T06:36:39;9.00;44.40
50560;DHT22;36510;52.610;13.468;2022-09-30T06:41:29;9.20;43.40
50560;DHT22;36510;52.610;13.468;2022-09-30T06:46:20;9.40;44.70
50560;DHT22;36510;52.610;13.468;2022-09-30T06:51:12;9.40;44.70
50560;DHT22;36510;52.610;13.468;2022-09-30T06:56:03;9.40;47.40
50560;DHT22;36510;52.610;13.468;2022-09-30T07:01:07;9.10;49.50
50560;DHT22;36510;52.610;13.468;2022-09-30T07:05:59;9.00;51.20
50560;DHT22;36510;52.610;13.468;2022-09-30T07:10:51;9.20;52.60
50560;DHT22;36510;52.610;13.468;2022-09-30T07:15:42;9.40;52.00
50560;DHT22;36510;52.610;13.468;2022-09-30T07:20:32;9.70;51.40
50560;DHT22;36510;52.610;13.468;2022-09-30T07:25:23;10.00;49.60
50560;DHT22;36510;52.610;13.468;2022-09-30T07:30:13;10.20;48.80
50560;DHT22;36510;52.610;13.468;2022-09-30T07:35:04;10.40;48.70
50560;DHT22;36510;52.610;13.468;2022-09-30T07:39:55;10.50;48.80
50560;DHT22;36510;52.610;13.468;2022-09-30T07:44:47;10.60;48.50
50560;DHT22;36510;52.610;13.468;2022-09-30T07:49:38;10.60;49.60
50560;DHT22;36510;52.610;13.468;2022-09-30T07:54:30;10.80;48.40
50560;DHT22;36510;52.610;13.468;2022-09-30T07:59:21;11.00;48.30
50560;DHT22;36510;52.610;13.468;2022-09-30T08:04:14;11.20;47.90
50560;DHT22;36510;52.610;13.468;2022-09-30T08:09:05;11.50;47.90
50560;DHT22;36510;52.610;13.468;2022-09-30T08:13:56;11.70;47.20
50560;DHT22;36510;52.610;13.468;2022-09-30T08:18:46;11.80;47.90
50560;DHT22;36510;52.610;13.468;2022-09-30T08:23:37;11.90;45.30
50560;DHT22;36510;52.610;13.468;2022-09-30T08:28:27;12.10;45.10
50560;DHT22;36510;52.610;13.468;2022-09-30T08:33:21;12.20;42.50
50560;DHT22;36510;52.610;13.468;2022-09-30T08:38:11;12.40;42.30
50560;DHT22;36510;52.610;13.468;2022-09-30T08:48:16;12.90;40.40
50560;DHT22;36510;52.610;13.468;2022-09-30T08:53:24;13.00;37.70
50560;DHT22;36510;52.610;13.468;2022-09-30T08:58:31;13.20;36.30
50560;DHT22;36510;52.610;13.468;2022-09-30T09:03:26;13.40;34.50
50560;DHT22;36510;52.610;13.468;2022-09-30T09:13:53;13.90;32.00
50560;DHT22;36510;52.610;13.468;2022-09-30T09:19:06;14.20;30.70
50560;DHT22;36510;52.610;13.468;2022-09-30T09:24:00;14.40;29.60
50560;DHT22;36510;52.610;13.468;2022-09-30T09:29:05;14.50;28.30
50560;DHT22;36510;52.610;13.468;2022-09-30T09:34:09;14.80;26.30
50560;DHT22;36510;52.610;13.468;2022-09-30T09:39:33;14.90;28.60
50560;DHT22;36510;52.610;13.468;2022-09-30T09:44:53;15.20;25.60
50560;DHT22;36510;52.610;13.468;2022-09-30T09:49:51;15.30;24.50
50560;DHT22;36510;52.610;13.468;2022-09-30T09:54:45;15.50;23.90
50560;DHT22;36510;52.610;13.468;2022-09-30T09:59:38;15.70;24.00
50560;DHT22;36510;52.610;13.468;2022-09-30T10:04:47;15.80;24.80
50560;DHT22;36510;52.610;13.468;2022-09-30T10:09:41;15.90;22.00
50560;DHT22;36510;52.610;13.468;2022-09-30T10:14:34;16.00;21.60
50560;DHT22;36510;52.610;13.468;2022-09-30T10:19:27;16.00;21.60
50560;DHT22;36510;52.610;13.468;2022-09-30T10:24:27;16.10;21.00
50560;DHT22;36510;52.610;13.468;2022-09-30T10:29:30;16.10;20.10
50560;DHT22;36510;52.610;13.468;2022-09-30T10:34:37;16.20;18.70
50560;DHT22;36510;52.610;13.468;2022-09-30T10:39:34;16.50;18.20
50560;DHT22;36510;52.610;13.468;2022-09-30T10:44:25;16.60;19.90
50560;DHT22;36510;52.610;13.468;2022-09-30T10:49:29;17.00;19.60
50560;DHT22;36510;52.610;13.468;2022-09-30T10:54:45;17.30;18.90
50560;DHT22;36510;52.610;13.468;2022-09-30T10:59:37;17.30;16.10
50560;DHT22;36510;52.610;13.468;2022-09-30T11:04:40;17.40;16.80
50560;DHT22;36510;52.610;13.468;2022-09-30T11:09:46;17.40;16.60
50560;DHT22;36510;52.610;13.468;2022-09-30T11:14:56;17.40;16.30
50560;DHT22;36510;52.610;13.468;2022-09-30T11:20:10;17.70;17.20
50560;DHT22;36510;52.610;13.468;2022-09-30T11:25:04;17.70;14.90
50560;DHT22;36510;52.610;13.468;2022-09-30T11:35:07;18.10;14.60
50560;DHT22;36510;52.610;13.468;2022-09-30T11:40:28;18.60;13.40
50560;DHT22;36510;52.610;13.468;2022-09-30T11:45:52;18.30;13.30
50560;DHT22;36510;52.610;13.468;2022-09-30T11:51:02;18.50;12.90
50560;DHT22;36510;52.610;13.468;2022-09-30T12:01:39;18.90;9.50
50560;DHT22;36510;52.610;13.468;2022-09-30T12:06:37;18.70;9.10
50560;DHT22;36510;52.610;13.468;2022-09-30T12:11:36;18.50;10.30
50560;DHT22;36510;52.610;13.468;2022-09-30T12:16:30;18.80;9.20
50560;DHT22;36510;52.610;13.468;2022-09-30T12:21:39;19.00;10.50
50560;DHT22;36510;52.610;13.468;2022-09-30T12:26:30;18.80;10.60
50560;DHT22;36510;52.610;13.468;2022-09-30T12:31:41;18.80;9.70
50560;DHT22;36510;52.610;13.468;2022-09-30T12:36:49;18.90;10.60
50560;DHT22;36510;52.610;13.468;2022-09-30T12:42:01;19.00;9.10
50560;DHT22;36510;52.610;13.468;2022-09-30T12:52:14;19.00;9.60
50560;DHT22;36510;52.610;13.468;2022-09-30T12:57:07;19.10;10.80
50560;DHT22;36510;52.610;13.468;2022-09-30T13:01:59;18.70;9.90
50560;DHT22;36510;52.610;13.468;2022-09-30T13:11:43;18.60;10.50
50560;DHT22;36510;52.610;13.468;2022-09-30T13:16:56;18.40;10.80
50560;DHT22;36510;52.610;13.468;2022-09-30T13:21:47;18.10;10.70
50560;DHT22;36510;52.610;13.468;2022-09-30T13:26:40;18.20;11.70
50560;DHT22;36510;52.610;13.468;2022-09-30T13:41:43;18.30;10.30
50560;DHT22;36510;52.610;13.468;2022-09-30T13:46:42;18.40;9.50
50560;DHT22;36510;52.610;13.468;2022-09-30T13:51:36;18.30;11.00
50560;DHT22;36510;52.610;13.468;2022-09-30T13:56:32;18.10;8.90
50560;DHT22;36510;52.610;13.468;2022-09-30T14:01:46;18.10;10.50
50560;DHT22;36510;52.610;13.468;2022-09-30T14:07:07;18.10;11.20
50560;DHT22;36510;52.610;13.468;2022-09-30T14:17:24;18.00;10.80
50560;DHT22;36510;52.610;13.468;2022-09-30T14:22:19;17.90;11.90
50560;DHT22;36510;52.610;13.468;2022-09-30T14:32:55;18.00;12.00
50560;DHT22;36510;52.610;13.468;2022-09-30T14:37:53;18.00;12.00
50560;DHT22;36510;52.610;13.468;2022-09-30T14:42:44;18.00;10.80
50560;DHT22;36510;52.610;13.468;2022-09-30T14:47:43;18.10;11.90
50560;DHT22;36510;52.610;13.468;2022-09-30T14:52:42;18.10;12.90
50560;DHT22;36510;52.610;13.468;2022-09-30T14:57:33;18.10;9.20
50560;DHT22;36510;52.610;13.468;2022-09-30T15:02:24;18.00;9.90
50560;DHT22;36510;52.610;13.468;2022-09-30T15:07:15;18.10;10.20
50560;DHT22;36510;52.610;13.468;2022-09-30T15:12:19;18.10;9.00
50560;DHT22;36510;52.610;13.468;2022-09-30T15:17:23;18.10;8.00
50560;DHT22;36510;52.610;13.468;2022-09-30T15:22:17;18.10;10.00
50560;DHT22;36510;52.610;13.468;2022-09-30T15:27:16;17.90;9.30
50560;DHT22;36510;52.610;13.468;2022-09-30T15:32:14;17.90;10.60
50560;DHT22;36510;52.610;13.468;2022-09-30T15:37:22;17.80;9.90
50560;DHT22;36510;52.610;13.468;2022-09-30T15:42:16;17.50;10.80
50560;DHT22;36510;52.610;13.468;2022-09-30T15:47:13;17.40;12.50
50560;DHT22;36510;52.610;13.468;2022-09-30T15:57:43;17.40;12.40
50560;DHT22;36510;52.610;13.468;2022-09-30T16:02:35;17.50;12.70
50560;DHT22;36510;52.610;13.468;2022-09-30T16:07:25;17.50;11.80
50560;DHT22;36510;52.610;13.468;2022-09-30T16:12:20;17.50;12.30
50560;DHT22;36510;52.610;13.468;2022-09-30T16:17:22;17.50;16.00
50560;DHT22;36510;52.610;13.468;2022-09-30T16:27:33;17.20;13.20
50560;DHT22;36510;52.610;13.468;2022-09-30T16:32:24;16.90;18.40
50560;DHT22;36510;52.610;13.468;2022-09-30T16:37:17;16.70;18.40
50560;DHT22;36510;52.610;13.468;2022-09-30T16:42:13;16.60;20.20
50560;DHT22;36510;52.610;13.468;2022-09-30T16:47:04;16.30;20.70
50560;DHT22;36510;52.610;13.468;2022-09-30T16:51:55;16.00;22.10
50560;DHT22;36510;52.610;13.468;2022-09-30T16:56:45;15.70;23.60
50560;DHT22;36510;52.610;13.468;2022-09-30T17:01:36;15.70;23.60
50560;DHT22;36510;52.610;13.468;2022-09-30T17:06:28;15.60;24.30
50560;DHT22;36510;52.610;13.468;2022-09-30T17:11:23;15.50;24.50
50560;DHT22;36510;52.610;13.468;2022-09-30T17:16:18;15.40;24.50
50560;DHT22;36510;52.610;13.468;2022-09-30T17:21:09;15.30;25.00
50560;DHT22;36510;52.610;13.468;2022-09-30T17:26:03;15.00;25.30
50560;DHT22;36510;52.610;13.468;2022-09-30T17:30:54;14.80;26.00
50560;DHT22;36510;52.610;13.468;2022-09-30T17:35:44;14.70;26.80
50560;DHT22;36510;52.610;13.468;2022-09-30T17:40:35;14.50;27.10
50560;DHT22;36510;52.610;13.468;2022-09-30T17:45:45;14.30;27.50
50560;DHT22;36510;52.610;13.468;2022-09-30T17:50:40;14.10;28.20
50560;DHT22;36510;52.610;13.468;2022-09-30T17:55:31;14.00;29.00
50560;DHT22;36510;52.610;13.468;2022-09-30T18:00:23;14.00;29.20
50560;DHT22;36510;52.610;13.468;2022-09-30T18:05:14;13.90;29.30
50560;DHT22;36510;52.610;13.468;2022-09-30T18:10:05;13.80;29.80
50560;DHT22;36510;52.610;13.468;2022-09-30T18:14:57;13.70;29.90
50560;DHT22;36510;52.610;13.468;2022-09-30T18:19:48;13.60;30.10
50560;DHT22;36510;52.610;13.468;2022-09-30T18:24:39;13.50;30.60
50560;DHT22;36510;52.610;13.468;2022-09-30T18:29:48;13.40;30.70
50560;DHT22;36510;52.610;13.468;2022-09-30T18:34:38;13.40;30.80
50560;DHT22;36510;52.610;13.468;2022-09-30T18:39:29;13.30;30.60
50560;DHT22;36510;52.610;13.468;2022-09-30T18:44:20;13.30;30.00
50560;DHT22;36510;52.610;13.468;2022-09-30T18:49:11;13.30;30.00
50560;DHT22;36510;52.610;13.468;2022-09-30T18:54:02;13.30;30.10
50560;DHT22;36510;52.610;13.468;2022-09-30T18:58:55;13.20;30.50
50560;DHT22;36510;52.610;13.468;2022-09-30T19:03:45;13.10;30.70
50560;DHT22;36510;52.610;13.468;2022-09-30T19:08:36;13.00;30.80
50560;DHT22;36510;52.610;13.468;2022-09-30T19:13:26;12.90;31.20
50560;DHT22;36510;52.610;13.468;2022-09-30T19:18:17;12.80;31.30
50560;DHT22;36510;52.610;13.468;2022-09-30T19:23:10;12.80;31.50
50560;DHT22;36510;52.610;13.468;2022-09-30T19:28:01;12.70;31.00
50560;DHT22;36510;52.610;13.468;2022-09-30T19:32:57;12.60;31.40
50560;DHT22;36510;52.610;13.468;2022-09-30T19:37:48;12.50;32.30
50560;DHT22;36510;52.610;13.468;2022-09-30T19:42:39;12.40;32.60
50560;DHT22;36510;52.610;13.468;2022-09-30T19:47:30;12.30;32.60
50560;DHT22;36510;52.610;13.468;2022-09-30T19:52:20;12.30;32.20
50560;DHT22;36510;52.610;13.468;2022-09-30T19:57:11;12.30;32.20
50560;DHT22;36510;52.610;13.468;2022-09-30T20:02:02;12.40;32.10
50560;DHT22;36510;52.610;13.468;2022-09-30T20:06:52;12.30;31.60
50560;DHT22;36510;52.610;13.468;2022-09-30T20:11:44;12.30;31.40
50560;DHT22;36510;52.610;13.468;2022-09-30T20:16:34;12.20;31.60
50560;DHT22;36510;52.610;13.468;2022-09-30T20:21:25;12.00;31.80
50560;DHT22;36510;52.610;13.468;2022-09-30T20:26:15;12.00;32.00
50560;DHT22;36510;52.610;13.468;2022-09-30T20:31:12;12.00;31.90
50560;DHT22;36510;52.610;13.468;2022-09-30T20:36:03;12.00;31.80
50560;DHT22;36510;52.610;13.468;2022-09-30T20:40:55;12.10;31.70
50560;DHT22;36510;52.610;13.468;2022-09-30T20:45:52;12.10;31.50
50560;DHT22;36510;52.610;13.468;2022-09-30T20:50:42;12.00;32.00
50560;DHT22;36510;52.610;13.468;2022-09-30T20:55:36;12.10;31.20
50560;DHT22;36510;52.610;13.468;2022-09-30T21:00:27;12.10;30.60
50560;DHT22;36510;52.610;13.468;2022-09-30T21:05:19;12.00;30.60
50560;DHT22;36510;52.610;13.468;2022-09-30T21:10:09;12.00;30.80
50560;DHT22;36510;52.610;13.468;2022-09-30T21:15:00;11.90;30.50
50560;DHT22;36510;52.610;13.468;2022-09-30T21:19:50;11.80;30.50
50560;DHT22;36510;52.610;13.468;2022-09-30T21:24:41;11.70;30.90
50560;DHT22;36510;52.610;13.468;2022-09-30T21:29:31;11.60;31.10
50560;DHT22;36510;52.610;13.468;2022-09-30T21:34:22;11.50;31.30
50560;DHT22;36510;52.610;13.468;2022-09-30T21:39:13;11.50;31.10
50560;DHT22;36510;52.610;13.468;2022-09-30T21:44:03;11.50;30.70
50560;DHT22;36510;52.610;13.468;2022-09-30T21:49:05;11.50;30.50
50560;DHT22;36510;52.610;13.468;2022-09-30T21:53:56;11.60;30.60
50560;DHT22;36510;52.610;13.468;2022-09-30T21:58:47;11.60;29.80
50560;DHT22;36510;52.610;13.468;2022-09-30T22:03:37;11.80;29.40
50560;DHT22;36510;52.610;13.468;2022-09-30T22:08:28;11.80;29.00
50560;DHT22;36510;52.610;13.468;2022-09-30T22:13:22;11.60;28.90
50560;DHT22;36510;52.610;13.468;2022-09-30T22:18:17;11.40;29.60
50560;DHT22;36510;52.610;13.468;2022-09-30T22:23:07;11.30;30.40
50560;DHT22;36510;52.610;13.468;2022-09-30T22:27:58;11.20;30.50
50560;DHT22;36510;52.610;13.468;2022-09-30T22:32:48;11.20;29.90
50560;DHT22;36510;52.610;13.468;2022-09-30T22:37:59;11.30;29.90
50560;DHT22;36510;52.610;13.468;2022-09-30T22:43:05;11.40;29.40
50560;DHT22;36510;52.610;13.468;2022-09-30T22:47:55;11.40;28.80
50560;DHT22;36510;52.610;13.468;2022-09-30T22:52:47;11.30;29.20
50560;DHT22;36510;52.610;13.468;2022-09-30T22:57:37;11.20;29.60
50560;DHT22;36510;52.610;13.468;2022-09-30T23:02:28;11.20;29.70
50560;DHT22;36510;52.610;13.468;2022-09-30T23:07:18;11.30;29.60
50560;DHT22;36510;52.610;13.468;2022-09-30T23:12:09;11.40;29.40
50560;DHT22;36510;52.610;13.468;2022-09-30T23:17:00;11.50;28.90
50560;DHT22;36510;52.610;13.468;2022-09-30T23:21:51;11.30;28.70
50560;DHT22;36510;52.610;13.468;2022-09-30T23:26:41;11.30;28.90
50560;DHT22;36510;52.610;13.468;2022-09-30T23:31:32;11.30;28.70
50560;DHT22;36510;52.610;13.468;2022-09-30T23:36:25;11.40;28.80
50560;DHT22;36510;52.610;13.468;2022-09-30T23:41:18;11.50;28.70
50560;DHT22;36510;52.610;13.468;2022-09-30T23:46:09;11.40;28.30
50560;DHT22;36510;52.610;13.468;2022-09-30T23:51:01;11.30;27.90
50560;DHT22;36510;52.610;13.468;2022-09-30T23:56:00;11.30;28.40
